createdAt,value
2023-08-12T00:01:08.999Z,24.2
2023-08-12T00:13:09.118Z,24.2
2023-08-12T00:25:09.075Z,24.2
2023-08-12T00:37:09.431Z,24.1
2023-08-12T00:49:09.028Z,24.1
2023-08-12T01:01:09.198Z,24
2023-08-12T01:13:09.159Z,24
2023-08-12T01:25:09.047Z,24
2023-08-12T01:37:09.527Z,24
2023-08-12T01:49:09.242Z,23.9
2023-08-12T02:01:09.150Z,23.9
2023-08-12T02:13:09.080Z,23.9
2023-08-12T02:25:09.285Z,23.9
2023-08-12T02:37:09.526Z,23.9
2023-08-12T02:49:09.195Z,23.8
2023-08-12T03:01:09.131Z,23.8
2023-08-12T03:13:09.331Z,23.7
2023-08-12T03:25:09.244Z,23.7
2023-08-12T03:37:09.477Z,23.7
2023-08-12T03:49:09.379Z,23.7
2023-08-12T04:01:09.342Z,23.7
2023-08-12T04:13:09.272Z,23.7
2023-08-12T04:25:09.260Z,23.6
2023-08-12T04:37:09.460Z,23.6
2023-08-12T04:49:09.462Z,23.6
2023-08-12T05:01:09.296Z,23.5
2023-08-12T05:13:09.334Z,23.4
2023-08-12T05:25:09.471Z,23.4
2023-08-12T05:37:09.394Z,23.4
2023-08-12T05:49:09.374Z,23.4
2023-08-12T06:01:09.359Z,23.4
2023-08-12T06:13:09.503Z,23.4
2023-08-12T06:25:09.440Z,23.4
2023-08-12T06:37:09.374Z,23.5
2023-08-12T06:49:09.572Z,23.5
2023-08-12T07:01:09.521Z,23.5
2023-08-12T07:13:09.483Z,23.5
2023-08-12T07:25:09.401Z,23.5
2023-08-12T07:37:09.683Z,23.5
2023-08-12T07:49:09.532Z,23.5
2023-08-12T08:01:09.496Z,23.5
2023-08-12T08:13:09.438Z,23.5
2023-08-12T08:25:09.698Z,23.5
2023-08-12T08:37:09.550Z,23.5
2023-08-12T08:49:09.541Z,23.6
2023-08-12T09:13:09.542Z,23.4
2023-08-12T09:25:09.867Z,23.4
2023-08-12T09:37:09.656Z,23.3
2023-08-12T09:49:09.559Z,23.4
2023-08-12T10:01:09.583Z,23.3
2023-08-12T10:13:09.766Z,23.3
2023-08-12T10:25:09.928Z,23.3
2023-08-12T10:37:09.659Z,23.4
2023-08-12T10:49:09.789Z,23.4
2023-08-12T11:01:09.746Z,23.4
2023-08-12T11:13:09.732Z,23.3
2023-08-12T11:25:09.781Z,23.3
2023-08-12T11:37:09.864Z,23.4
2023-08-12T11:49:09.730Z,23.4
2023-08-12T12:01:09.744Z,23.4
2023-08-12T12:13:09.842Z,23.4
2023-08-12T12:25:09.915Z,23.4
2023-08-12T12:37:09.795Z,23.5
2023-08-12T12:49:10.241Z,23.7
2023-08-12T13:01:09.898Z,23.7
2023-08-12T13:13:09.895Z,23.8
2023-08-12T13:25:09.926Z,23.9
2023-08-12T13:37:09.785Z,24.3
2023-08-12T13:49:09.980Z,24.2
2023-08-12T14:01:09.977Z,24.5
2023-08-12T14:13:09.818Z,24.9
2023-08-12T14:25:10.008Z,25
2023-08-12T14:37:09.971Z,25.1
2023-08-12T14:49:10.047Z,25.2
2023-08-12T15:01:09.960Z,25.4
2023-08-12T15:13:10.050Z,25.3
2023-08-12T15:25:10.003Z,25.3
2023-08-12T15:37:09.989Z,25.3
2023-08-12T15:49:10.609Z,25.1
2023-08-12T16:01:10.085Z,24.7
2023-08-12T16:13:09.992Z,24.6
2023-08-12T16:25:10.021Z,24.5
2023-08-12T16:37:20.727Z,24.4
2023-08-12T16:49:10.138Z,24.3
2023-08-12T17:01:10.053Z,24.3
2023-08-12T17:13:10.041Z,24.3
2023-08-12T17:25:10.381Z,24.3
2023-08-12T17:37:10.143Z,24.1
2023-08-12T17:49:10.051Z,24
2023-08-12T18:01:10.054Z,23.9
2023-08-12T18:13:10.216Z,23.9
2023-08-12T18:25:10.161Z,23.8
2023-08-12T18:37:10.174Z,23.7
2023-08-12T18:49:10.123Z,23.7
2023-08-12T19:01:10.237Z,23.7
2023-08-12T19:13:10.187Z,23.6
2023-08-12T19:25:10.160Z,23.5
2023-08-12T19:37:10.354Z,23.6
2023-08-12T19:49:10.242Z,23.7
2023-08-12T20:01:10.273Z,23.7
2023-08-12T20:13:10.140Z,23.7
2023-08-12T20:25:10.342Z,23.7
2023-08-12T20:37:10.403Z,23.6
2023-08-12T20:49:10.270Z,23.6
2023-08-12T21:01:10.179Z,23.6
2023-08-12T21:13:10.405Z,23.6
2023-08-12T21:25:10.303Z,23.5
2023-08-12T21:37:10.358Z,23.5
2023-08-12T21:49:10.466Z,23.6
2023-08-12T22:01:10.393Z,23.6
2023-08-12T22:13:10.326Z,23.5
2023-08-12T22:25:10.315Z,23.5
2023-08-12T22:37:10.439Z,23.5
2023-08-12T22:49:10.474Z,23.5
2023-08-12T23:01:10.425Z,23.5
2023-08-12T23:13:10.530Z,23.4
2023-08-12T23:25:10.480Z,23.5
2023-08-12T23:37:10.570Z,23.3
2023-08-12T23:49:10.968Z,23.3
